createdAt,value
2018-06-30T00:03:01.464Z,48.90
2018-06-30T00:07:53.183Z,48.90
2018-06-30T00:12:44.059Z,48.80
2018-06-30T00:17:34.954Z,48.90
2018-06-30T00:22:25.835Z,49.10
2018-06-30T00:27:16.882Z,49.00
2018-06-30T00:32:08.526Z,49.20
2018-06-30T00:36:59.419Z,49.10
2018-06-30T00:41:50.298Z,49.10
2018-06-30T00:46:41.183Z,49.10
2018-06-30T00:51:32.119Z,49.10
2018-06-30T00:56:23.019Z,49.00
2018-06-30T01:01:13.920Z,48.90
2018-06-30T01:06:05.568Z,48.90
2018-06-30T01:10:56.477Z,48.80
2018-06-30T01:15:48.122Z,49.00
2018-06-30T01:20:39.755Z,49.00
2018-06-30T01:25:31.464Z,49.10
2018-06-30T01:30:22.388Z,49.10
2018-06-30T01:35:13.270Z,49.20
2018-06-30T01:40:04.913Z,49.30
2018-06-30T01:44:55.824Z,49.20
2018-06-30T01:49:46.737Z,49.30
2018-06-30T01:54:37.645Z,49.40
2018-06-30T01:59:28.534Z,49.30
2018-06-30T02:04:20.158Z,49.40
2018-06-30T02:09:11.800Z,49.40
2018-06-30T02:14:03.455Z,49.70
2018-06-30T02:18:54.350Z,49.60
2018-06-30T02:23:45.992Z,49.60
2018-06-30T02:28:37.633Z,49.80
2018-06-30T02:33:35.400Z,49.70
2018-06-30T02:38:27.036Z,49.90
2018-06-30T02:43:25.694Z,49.90
2018-06-30T02:48:16.591Z,49.80
2018-06-30T02:53:07.483Z,49.90
2018-06-30T02:57:59.112Z,49.90
2018-06-30T03:02:49.999Z,49.80
2018-06-30T03:07:40.952Z,49.90
2018-06-30T03:12:32.584Z,50.20
2018-06-30T03:17:24.228Z,50.00
2018-06-30T03:22:15.137Z,49.90
2018-06-30T03:27:06.773Z,50.20
2018-06-30T03:31:58.413Z,50.10
2018-06-30T03:36:50.060Z,50.10
2018-06-30T03:41:40.957Z,50.00
2018-06-30T03:46:32.661Z,50.10
2018-06-30T03:51:23.572Z,50.00
2018-06-30T03:56:14.471Z,50.10
2018-06-30T04:01:05.377Z,50.10
2018-06-30T04:05:56.255Z,50.10
2018-06-30T04:10:47.173Z,50.10
2018-06-30T04:15:38.084Z,50.20
2018-06-30T04:20:28.993Z,50.30
2018-06-30T04:25:19.893Z,50.80
2018-06-30T04:30:10.797Z,50.30
2018-06-30T04:35:01.710Z,50.20
2018-06-30T04:39:52.628Z,50.30
2018-06-30T04:44:43.529Z,50.60
2018-06-30T04:49:34.410Z,50.60
2018-06-30T04:54:25.341Z,50.60
2018-06-30T04:59:16.249Z,50.60
2018-06-30T05:04:07.159Z,50.70
2018-06-30T05:08:58.046Z,50.70
2018-06-30T05:13:48.953Z,50.80
2018-06-30T05:18:39.857Z,50.80
2018-06-30T05:23:30.763Z,50.80
2018-06-30T05:28:22.398Z,50.70
2018-06-30T05:33:14.035Z,50.70
2018-06-30T05:38:05.692Z,51.00
2018-06-30T05:42:56.600Z,50.80
2018-06-30T05:47:47.521Z,50.80
2018-06-30T05:52:38.422Z,50.80
2018-06-30T05:57:30.047Z,50.70
2018-06-30T06:02:20.942Z,50.60
2018-06-30T06:07:11.840Z,50.60
2018-06-30T06:12:02.741Z,50.60
2018-06-30T06:16:53.723Z,50.40
2018-06-30T06:21:45.356Z,50.30
2018-06-30T06:26:36.249Z,50.20
2018-06-30T06:31:27.152Z,50.20
2018-06-30T06:36:18.030Z,50.30
2018-06-30T06:41:08.929Z,50.80
2018-06-30T06:46:00.579Z,49.90
2018-06-30T06:50:52.225Z,49.60
2018-06-30T06:55:43.106Z,49.60
2018-06-30T07:00:34.066Z,49.60
2018-06-30T07:05:24.904Z,49.40
2018-06-30T07:10:15.803Z,49.20
2018-06-30T07:15:06.717Z,49.00
2018-06-30T07:19:57.606Z,48.80
2018-06-30T07:24:48.494Z,48.80
2018-06-30T07:29:39.405Z,48.40
2018-06-30T07:34:30.313Z,49.30
2018-06-30T07:39:21.213Z,49.60
2018-06-30T07:44:12.137Z,50.10
2018-06-30T07:49:03.042Z,50.30
2018-06-30T07:53:53.949Z,50.00
2018-06-30T07:58:44.868Z,49.30
2018-06-30T08:03:36.518Z,48.80
2018-06-30T08:08:27.407Z,48.80
2018-06-30T08:13:18.341Z,48.80
2018-06-30T08:18:10.001Z,48.60
2018-06-30T08:23:00.904Z,48.60
2018-06-30T08:27:51.858Z,48.40
2018-06-30T08:32:42.752Z,48.20
2018-06-30T08:37:33.661Z,48.10
2018-06-30T08:42:24.567Z,47.70
2018-06-30T08:47:16.231Z,46.90
2018-06-30T08:52:07.160Z,46.80
2018-06-30T08:56:58.071Z,46.60
2018-06-30T09:01:48.980Z,46.50
2018-06-30T09:06:39.937Z,46.50
2018-06-30T09:11:30.859Z,46.10
2018-06-30T09:16:21.761Z,46.00
2018-06-30T09:21:12.661Z,45.90
2018-06-30T09:26:03.609Z,45.70
2018-06-30T09:30:54.487Z,45.80
2018-06-30T09:35:45.390Z,45.60
2018-06-30T09:40:37.022Z,45.50
2018-06-30T09:45:28.688Z,45.50
2018-06-30T09:50:19.585Z,45.50
2018-06-30T09:55:10.524Z,45.40
2018-06-30T10:00:01.421Z,45.30
2018-06-30T10:04:52.320Z,45.10
2018-06-30T10:09:43.944Z,45.00
2018-06-30T10:14:34.848Z,44.80
2018-06-30T10:24:23.389Z,44.20
2018-06-30T10:29:14.284Z,44.10
2018-06-30T10:34:05.915Z,44.10
2018-06-30T10:38:56.895Z,44.10
2018-06-30T10:43:47.835Z,44.30
2018-06-30T10:48:38.727Z,44.30
2018-06-30T10:53:29.638Z,43.30
2018-06-30T10:58:20.542Z,43.00
2018-06-30T11:03:11.443Z,42.80
2018-06-30T11:08:03.082Z,42.50
2018-06-30T11:12:53.975Z,42.40
2018-06-30T11:17:44.879Z,42.40
2018-06-30T11:22:35.910Z,42.40
2018-06-30T11:27:26.790Z,42.10
2018-06-30T11:32:17.690Z,41.40
2018-06-30T11:37:08.589Z,41.30
2018-06-30T11:42:00.222Z,41.50
2018-06-30T11:46:51.848Z,41.10
2018-06-30T11:51:43.486Z,40.50
2018-06-30T11:56:35.114Z,40.20
2018-06-30T12:01:26.007Z,40.10
2018-06-30T12:06:16.901Z,39.90
2018-06-30T12:11:07.796Z,39.30
2018-06-30T12:15:58.691Z,39.40
2018-06-30T12:20:50.364Z,39.30
2018-06-30T12:25:41.254Z,38.90
2018-06-30T12:30:32.895Z,38.30
2018-06-30T12:35:24.557Z,38.20
2018-06-30T12:40:15.455Z,38.20
2018-06-30T12:45:06.414Z,38.20
2018-06-30T12:49:57.289Z,38.50
2018-06-30T12:54:48.197Z,38.40
2018-06-30T12:59:39.840Z,38.40
2018-06-30T13:04:31.505Z,38.50
2018-06-30T13:09:22.394Z,38.50
2018-06-30T13:14:14.053Z,38.10
2018-06-30T13:19:04.969Z,38.10
2018-06-30T13:23:55.873Z,38.40
2018-06-30T13:28:46.834Z,38.40
2018-06-30T13:33:37.709Z,38.30
2018-06-30T13:38:28.613Z,38.30
2018-06-30T13:43:20.290Z,38.80
2018-06-30T13:48:11.187Z,38.80
2018-06-30T13:53:02.089Z,38.60
2018-06-30T13:57:53.743Z,38.70
2018-06-30T14:02:44.650Z,38.70
2018-06-30T14:07:36.359Z,39.20
2018-06-30T14:12:27.266Z,38.60
2018-06-30T14:17:18.172Z,38.70
2018-06-30T14:22:09.058Z,38.70
2018-06-30T14:26:59.966Z,38.70
2018-06-30T14:31:50.870Z,39.40
2018-06-30T14:36:42.528Z,38.40
2018-06-30T14:41:33.432Z,38.30
2018-06-30T14:46:25.082Z,38.50
2018-06-30T14:51:15.993Z,38.50
2018-06-30T14:56:06.897Z,38.50
2018-06-30T15:00:58.734Z,39.20
2018-06-30T15:05:50.376Z,39.30
2018-06-30T15:10:42.021Z,39.30
2018-06-30T15:15:32.949Z,39.20
2018-06-30T15:20:23.898Z,39.50
2018-06-30T15:25:14.775Z,39.60
2018-06-30T15:30:05.672Z,39.90
2018-06-30T15:34:57.318Z,38.80
2018-06-30T15:39:49.002Z,38.70
2018-06-30T15:44:39.917Z,38.70
2018-06-30T15:49:30.812Z,38.70
2018-06-30T15:54:21.717Z,38.90
2018-06-30T15:59:12.644Z,39.10
2018-06-30T16:04:03.538Z,39.20
2018-06-30T16:08:55.249Z,39.20
2018-06-30T16:13:46.165Z,39.10
2018-06-30T16:18:37.073Z,39.30
2018-06-30T16:23:28.717Z,39.20
2018-06-30T16:28:19.656Z,39.20
2018-06-30T16:33:10.555Z,39.00
2018-06-30T16:38:02.178Z,39.10
2018-06-30T16:42:53.110Z,39.70
2018-06-30T16:47:43.996Z,39.00
2018-06-30T16:52:34.876Z,39.00
2018-06-30T16:57:26.563Z,38.50
2018-06-30T17:02:17.439Z,38.40
2018-06-30T17:07:09.122Z,38.20
2018-06-30T17:12:00.027Z,38.20
2018-06-30T17:16:50.926Z,38.10
2018-06-30T17:21:41.813Z,38.20
2018-06-30T17:26:32.704Z,37.90
2018-06-30T17:31:23.653Z,37.80
2018-06-30T17:36:15.294Z,37.60
2018-06-30T17:41:06.949Z,37.80
2018-06-30T17:45:57.848Z,37.70
2018-06-30T17:50:49.509Z,37.30
2018-06-30T17:55:40.436Z,37.30
2018-06-30T18:00:31.338Z,37.50
2018-06-30T18:05:22.232Z,37.70
2018-06-30T18:10:13.232Z,37.70
2018-06-30T18:15:04.790Z,37.80
2018-06-30T18:19:56.446Z,38.10
2018-06-30T18:24:47.344Z,38.10
2018-06-30T18:29:38.986Z,37.60
2018-06-30T18:34:30.622Z,38.00
2018-06-30T18:39:22.274Z,38.10
2018-06-30T18:44:13.220Z,38.10
2018-06-30T18:49:04.833Z,38.30
2018-06-30T18:53:55.757Z,39.00
2018-06-30T18:58:46.654Z,38.20
2018-06-30T19:03:38.297Z,38.20
2018-06-30T19:08:29.239Z,38.20
2018-06-30T19:13:20.137Z,38.60
2018-06-30T19:18:11.049Z,38.60
2018-06-30T19:23:01.953Z,38.70
2018-06-30T19:27:53.601Z,39.20
2018-06-30T19:32:44.529Z,39.20
2018-06-30T19:37:35.429Z,39.30
2018-06-30T19:42:27.077Z,39.50
2018-06-30T19:47:17.974Z,39.50
2018-06-30T19:52:09.632Z,39.70
2018-06-30T19:57:00.534Z,39.60
2018-06-30T20:01:52.178Z,40.00
2018-06-30T20:06:43.868Z,40.00
2018-06-30T20:11:34.758Z,39.80
2018-06-30T20:16:25.634Z,40.10
2018-06-30T20:21:16.531Z,40.20
2018-06-30T20:26:07.425Z,40.30
2018-06-30T20:30:58.318Z,40.40
2018-06-30T20:35:49.209Z,40.50
2018-06-30T20:40:40.858Z,40.70
2018-06-30T20:45:32.483Z,40.70
2018-06-30T20:50:24.120Z,40.90
2018-06-30T20:55:15.747Z,41.00
2018-06-30T21:00:06.628Z,41.00
2018-06-30T21:04:57.521Z,41.00
2018-06-30T21:09:48.403Z,41.00
2018-06-30T21:14:40.054Z,41.20
2018-06-30T21:19:31.009Z,41.20
2018-06-30T21:24:21.891Z,41.20
2018-06-30T21:29:12.789Z,41.40
2018-06-30T21:34:03.675Z,41.40
2018-06-30T21:38:54.576Z,41.60
2018-06-30T21:43:45.477Z,41.50
2018-06-30T21:48:36.370Z,41.60
2018-06-30T21:53:28.018Z,41.70
2018-06-30T21:58:18.929Z,41.60
2018-06-30T22:03:10.610Z,41.70
2018-06-30T22:08:01.474Z,41.70
2018-06-30T22:12:53.121Z,41.80
2018-06-30T22:17:44.746Z,41.90
2018-06-30T22:22:36.362Z,42.00
2018-06-30T22:27:27.257Z,42.00
2018-06-30T22:32:18.158Z,42.10
2018-06-30T22:37:09.034Z,42.80
2018-06-30T22:42:00.665Z,42.30
2018-06-30T22:46:52.286Z,42.50
2018-06-30T22:51:43.168Z,42.50
2018-06-30T22:56:34.072Z,42.50
2018-06-30T23:01:24.974Z,42.50
2018-06-30T23:06:15.861Z,42.60
2018-06-30T23:11:06.748Z,42.70
2018-06-30T23:15:57.656Z,42.70
2018-06-30T23:20:48.561Z,42.90
2018-06-30T23:25:39.466Z,43.20
2018-06-30T23:30:30.360Z,43.20
2018-06-30T23:35:21.256Z,43.20
2018-06-30T23:40:12.138Z,43.20
2018-06-30T23:45:03.038Z,43.30
2018-06-30T23:49:53.937Z,43.30
2018-06-30T23:54:45.570Z,43.40
2018-06-30T23:59:36.455Z,43.30
